Fortuna, North Dakota
Current Conditions -  °F | °C
As of 1:35 AM on Friday 19 Dec 2014 (Local Time) from KD50 Reporting Station
Overcast Overcast  
Wind Chill: 19°   Ceiling: 400
Heat Index: 27°   Visibility: 7mi
Dew Point: 27°   Wind: 7mph
Humidity: 100%   Direction: 270°W
Pressure: 29.92"   Gusts: NA
Location:  48.91°N, 103.78°W
Report Text: KD50 190735Z AUTO 27006KT 7SM OVC004 M03/M03 A2992 RMK AO2
Loading
Personal Weather Stations






























Interactive Weather Map New forecast layout! Learn more

10-Day Weather Forecast

Advertisements
Track Severe Weather on mobile